Time;durP1;ratioP1;P1;durP2;ratioP2;P2;SDS_P1;SDS_P2;PMS_P1;PMS_P2;Temp;Humidity;BMP_temperature;BMP_pressure;BME280_temperature;BME280_humidity;BME280_pressure;Samples;Min_cycle;Max_cycle;Signal;HPM_P1;HPM_P2
2022/12/28 16:27:13;;;;;;;1999.90;999.90;;;;;;;;;;5039491;22;1509423;-62
2022/12/28 16:32:01;;;;;;;1999.90;999.90;;;;;;;;;;5052780;28;20467;-65
2022/12/28 19:33:02;;;;;;;;;;;;;;;;;;5102249;27;19950;-61
2022/12/28 19:35:28;;;;;;;;;;;;;;;;;;5099753;28;19951;-61
2022/12/28 19:37:55;;;;;;;;;;;;;;;;;;5098533;28;19971;-62
2022/12/28 19:40:21;;;;;;;;;;;;;;;;;;5096479;28;19928;-62
2022/12/28 19:42:47;;;;;;;;;;;;;;;;;;5094148;28;20336;-62
2022/12/28 19:45:14;;;;;;;;;;;;;;;;;;5095938;28;19928;-62
2022/12/28 19:47:40;;;;;;;;;;;;;;;;;;5096203;28;19924;-62
2022/12/28 19:50:08;;;;;;;;;;;;;;;;;;5087344;28;19931;-62
2022/12/28 19:52:34;;;;;;;;;;;;;;;;;;5097345;28;20011;-62
2022/12/28 19:55:01;;;;;;;;;;;;;;;;;;5094971;28;19975;-61
2022/12/28 19:57:27;;;;;;;;;;;;;;;;;;5095421;28;19974;-62
2022/12/28 19:59:53;;;;;;;;;;;;;;;;;;5095058;28;20402;-62
2022/12/28 20:02:20;;;;;;;;;;;;;;;;;;5095920;28;20066;-62
2022/12/28 20:04:46;;;;;;;;;;;;;;;;;;5095247;28;19978;-62
2022/12/28 20:07:14;;;;;;;;;;;;;;;;;;5095604;28;19971;-62
2022/12/28 20:09:40;;;;;;;;;;;;;;;;;;5087200;28;19928;-62
2022/12/28 20:12:07;;;;;;;;;;;;;;;;;;5093863;28;19975;-62
2022/12/28 20:14:33;;;;;;;;;;;;;;;;;;5091924;28;19963;-61
2022/12/28 20:16:59;;;;;;;;;;;;;;;;;;5094910;28;20375;-62
2022/12/28 20:19:26;;;;;;;;;;;;;;;;;;5099743;28;20015;-62
2022/12/28 20:21:52;;;;;;;;;;;;;;;;;;5093231;28;20383;-61
2022/12/28 20:24:20;;;;;;;;;;;;;;;;;;5099843;28;19924;-62
2022/12/28 20:26:47;;;;;;;;;;;;;;;;;;5095293;28;20290;-62
2022/12/28 20:29:15;;;;;;;;;;;;;;;;;;5094821;28;20028;-62
2022/12/28 20:31:41;;;;;;;;;;;;;;;;;;5085858;28;19936;-62
2022/12/28 20:34:07;;;;;;;;;;;;;;;;;;5095031;28;19960;-62
2022/12/28 20:36:34;;;;;;;;;;;;;;;;;;5091781;28;19982;-62
2022/12/28 20:39:00;;;;;;;;;;;;;;;;;;5094846;28;19928;-62
2022/12/28 20:44:14;;;;;;;;;;;;;;;;;;5083046;28;20367;-62
2022/12/28 20:46:41;;;;;;;;;;;;;;;;;;5080995;28;19968;-62
2022/12/28 20:49:08;;;;;;;;;;;;;;;;;;5077477;28;19971;-62
2022/12/28 20:51:34;;;;;;;;;;;;;;;;;;5073034;28;19928;-62
2022/12/28 20:54:01;;;;;;;;;;;;;;;;;;5080354;28;19977;-60
2022/12/28 20:56:29;;;;;;;;;;;;;;;;;;5074052;28;19951;-61
2022/12/28 20:58:55;;;;;;;;;;;;;;;;;;5085161;28;20440;-62
2022/12/28 21:01:21;;;;;;;;;;;;;;;;;;5083308;28;19977;-61
2022/12/28 21:03:48;;;;;;;;;;;;;;;;;;5078338;28;19928;-62
2022/12/28 21:06:14;;;;;;;;;;;;;;;;;;5082849;28;19970;-61
2022/12/28 21:08:41;;;;;;;;;;;;;;;;;;5079840;28;19975;-62
2022/12/28 21:11:07;;;;;;;;;;;;;;;;;;5085684;28;19935;-61
2022/12/28 21:13:35;;;;;;;;;;;;;;;;;;5078154;28;20021;-61
2022/12/28 21:16:02;;;;;;;;;;;;;;;;;;5071819;28;19931;-60
2022/12/28 21:18:29;;;;;;;;;;;;;;;;;;5077831;28;19981;-61
2022/12/28 21:20:56;;;;;;;;;;;;;;;;;;5081590;28;20406;-60
2022/12/28 21:23:23;;;;;;;;;;;;;;;;;;5079796;28;19939;-61
2022/12/28 21:25:49;;;;;;;;;;;;;;;;;;5071944;28;20548;-61
2022/12/28 21:28:15;;;;;;;;;;;;;;;;;;5076836;28;20363;-61
2022/12/28 21:30:43;;;;;;;;;;;;;;;;;;5083700;28;19950;-61
2022/12/28 21:33:10;;;;;;;;;;;;;;;;;;5083368;28;19980;-61
2022/12/28 21:35:36;;;;;;;;;;;;;;;;;;5082196;28;19981;-62
2022/12/28 21:38:04;;;;;;;;;;;;;;;;;;5084564;28;19964;-62
2022/12/28 21:40:30;;;;;;;;;;;;;;;;;;5078493;28;20478;-62
2022/12/28 21:42:56;;;;;;;;;;;;;;;;;;5082550;28;19968;-61
2022/12/28 21:45:23;;;;;;;;;;;;;;;;;;5083093;28;20396;-62
2022/12/28 21:47:51;;;;;;;;;;;;;;;;;;5077862;28;19994;-61
2022/12/28 21:50:17;;;;;;;;;;;;;;;;;;5080026;28;19935;-61
2022/12/28 21:52:43;;;;;;;;;;;;;;;;;;5083233;28;19978;-61
2022/12/28 21:57:54;;;;;;;;;;;;;;;;;;5081173;28;19935;-61
2022/12/28 22:06:05;;;;;;;;;;;;;;;;;;5079817;28;19925;-61
2022/12/28 22:13:59;;;;;;;;;;;;;;;;;;5077710;28;19936;-63
2022/12/28 22:16:26;;;;;;;;;;;;;;;;;;5077769;28;19967;-61
2022/12/28 22:18:54;;;;;;;;;;;;;;;;;;5077754;28;20376;-62
2022/12/28 22:21:20;;;;;;;;;;;;;;;;;;5080206;28;20383;-62
2022/12/28 22:23:46;;;;;;;;;;;;;;;;;;5075558;28;19924;-61
2022/12/28 22:26:13;;;;;;;;;;;;;;;;;;5080948;28;19967;-62
2022/12/28 22:28:39;;;;;;;;;;;;;;;;;;5075624;28;20017;-62
2022/12/28 22:31:06;;;;;;;;;;;;;;;;;;5080814;28;19971;-61
2022/12/28 22:33:32;;;;;;;;;;;;;;;;;;5076854;28;20009;-62
2022/12/28 22:36:08;;;;;;;;;;;;;;;;;;5079801;28;20352;-61
2022/12/28 22:38:35;;;;;;;;;;;;;;;;;;5074591;28;19983;-61
2022/12/28 22:41:01;;;;;;;;;;;;;;;;;;5078917;28;19924;-61
2022/12/28 22:43:27;;;;;;;;;;;;;;;;;;5076693;28;19924;-61
2022/12/28 22:45:59;;;;;;;;;;;;;;;;;;5077487;28;20016;-59
2022/12/28 22:48:26;;;;;;;;;;;;;;;;;;5068906;28;20110;-61
2022/12/28 22:50:53;;;;;;;;;;;;;;;;;;5073301;28;19978;-61
2022/12/28 22:53:20;;;;;;;;;;;;;;;;;;5070208;28;19924;-60
2022/12/28 22:55:55;;;;;;;;;;;;;;;;;;5076846;28;20383;-61
2022/12/28 22:58:21;;;;;;;;;;;;;;;;;;5071480;28;20308;-60
2022/12/28 23:00:47;;;;;;;;;;;;;;;;;;5078434;28;20086;-60
2022/12/28 23:03:14;;;;;;;;;;;;;;;;;;5083246;28;20050;-61
2022/12/28 23:05:40;;;;;;;;;;;;;;;;;;5079330;28;19955;-61
2022/12/28 23:08:06;;;;;;;;;;;;;;;;;;5070560;28;19975;-61
2022/12/28 23:10:34;;;;;;;;;;;;;;;;;;5082168;28;19928;-61
2022/12/28 23:13:00;;;;;;;;;;;;;;;;;;5078524;28;19924;-61
2022/12/28 23:15:27;;;;;;;;;;;;;;;;;;5076177;28;20958;-61
2022/12/28 23:27:18;;;;;;;;;;;;;;;;;;5077128;28;20369;-61
2022/12/28 23:28:54;;;;;;;;;;;;;;;;;;5076488;28;20001;-62
2022/12/28 23:31:20;;;;;;;;;;;;;;;;;;5075223;28;19928;-61
2022/12/28 23:33:46;;;;;;;;;;;;;;;;;;5075988;28;19928;-61
2022/12/28 23:36:13;;;;;;;;;;;;;;;;;;5075245;28;20394;-60
2022/12/28 23:38:39;;;;;;;;;;;;;;;;;;5074957;28;19982;-61
2022/12/28 23:43:51;;;;;;;;;;;;;;;;;;5073373;28;20002;-61
2022/12/28 23:46:17;;;;;;;;;;;;;;;;;;5077027;28;20387;-61
2022/12/28 23:48:44;;;;;;;;;;;;;;;;;;5077522;28;20375;-61
2022/12/28 23:51:10;;;;;;;;;;;;;;;;;;5071197;28;19924;-61
2022/12/28 23:53:37;;;;;;;;;;;;;;;;;;5073273;28;19933;-61
2022/12/28 23:56:03;;;;;;;;;;;;;;;;;;5079000;28;19972;-61
2022/12/28 23:58:29;;;;;;;;;;;;;;;;;;5076643;28;20403;-61
